createdAt,value
2023-01-06T00:02:13.643Z,10.80
2023-01-06T00:04:44.416Z,10.70
2023-01-06T00:07:15.090Z,10.70
2023-01-06T00:09:45.712Z,10.70
2023-01-06T00:12:16.420Z,10.60
2023-01-06T00:14:47.765Z,10.60
2023-01-06T00:17:18.369Z,10.60
2023-01-06T00:19:48.968Z,10.60
2023-01-06T00:22:19.620Z,10.50
2023-01-06T00:24:50.802Z,10.50
2023-01-06T00:27:21.385Z,10.50
2023-01-06T00:29:51.969Z,10.50
2023-01-06T00:32:22.696Z,10.50
2023-01-06T00:34:53.354Z,10.50
2023-01-06T00:37:23.915Z,10.50
2023-01-06T00:39:54.631Z,10.50
2023-01-06T00:42:25.781Z,10.50
2023-01-06T00:44:56.509Z,10.50
2023-01-06T00:47:27.219Z,10.50
2023-01-06T00:49:57.811Z,10.60
2023-01-06T00:52:28.407Z,10.60
2023-01-06T00:54:59.078Z,10.60
2023-01-06T00:57:30.080Z,10.70
2023-01-06T01:00:00.686Z,10.60
2023-01-06T01:02:31.368Z,10.60
2023-01-06T01:05:02.450Z,10.70
2023-01-06T01:07:33.016Z,10.70
2023-01-06T01:10:03.745Z,10.70
2023-01-06T01:12:34.451Z,10.70
2023-01-06T01:15:05.712Z,10.60
2023-01-06T01:17:36.451Z,10.60
2023-01-06T01:20:09.771Z,10.50
2023-01-06T01:22:40.359Z,10.50
2023-01-06T01:25:12.289Z,10.50
2023-01-06T01:27:42.939Z,10.50
2023-01-06T01:30:14.789Z,10.50
2023-01-06T01:32:45.401Z,10.40
2023-01-06T01:35:17.639Z,10.40
2023-01-06T01:37:48.298Z,10.50
2023-01-06T01:40:19.351Z,10.60
2023-01-06T01:42:49.965Z,10.50
2023-01-06T01:45:25.207Z,10.50
2023-01-06T01:48:00.881Z,10.50
2023-01-06T01:50:35.248Z,10.50
2023-01-06T01:53:25.348Z,10.50
2023-01-06T01:55:59.567Z,10.50
2023-01-06T01:58:32.799Z,10.50
2023-01-06T02:01:03.492Z,10.50
2023-01-06T02:03:34.439Z,10.50
2023-01-06T02:06:08.858Z,10.50
2023-01-06T02:08:42.111Z,10.50
2023-01-06T02:11:13.033Z,10.50
2023-01-06T02:13:47.643Z,10.50
2023-01-06T02:16:22.848Z,10.50
2023-01-06T02:18:59.365Z,10.50
2023-01-06T02:21:41.316Z,10.50
2023-01-06T02:24:41.337Z,10.50
2023-01-06T02:55:50.990Z,10.50
2023-01-06T02:58:26.360Z,10.30
2023-01-06T03:00:59.980Z,10.30
2023-01-06T03:03:33.855Z,10.30
2023-01-06T03:06:08.990Z,10.40
2023-01-06T03:08:40.987Z,10.40
2023-01-06T03:11:11.771Z,10.40
2023-01-06T03:13:45.357Z,10.40
2023-01-06T03:16:17.340Z,10.30
2023-01-06T03:18:50.725Z,10.30
2023-01-06T03:21:24.404Z,10.30
2023-01-06T03:23:55.521Z,10.40
2023-01-06T03:26:27.900Z,10.30
2023-01-06T03:28:58.802Z,10.30
2023-01-06T03:31:33.100Z,10.20
2023-01-06T03:34:07.254Z,10.20
2023-01-06T03:36:43.217Z,10.20
2023-01-06T03:39:18.345Z,10.20
2023-01-06T03:42:09.948Z,10.20
2023-01-06T03:44:44.330Z,10.10
2023-01-06T03:47:35.175Z,10.10
2023-01-06T03:50:10.062Z,10.10
2023-01-06T03:52:43.680Z,10.10
2023-01-06T03:55:17.377Z,10.10
2023-01-06T03:57:51.137Z,10.10
2023-01-06T04:00:24.835Z,10.10
2023-01-06T04:02:55.407Z,10.10
2023-01-06T04:05:28.016Z,10.10
2023-01-06T04:07:58.921Z,10.10
2023-01-06T04:10:29.519Z,10.10
2023-01-06T04:13:00.204Z,10.10
2023-01-06T04:15:30.876Z,10.00
2023-01-06T04:18:01.589Z,10.00
2023-01-06T04:20:33.207Z,10.00
2023-01-06T04:23:03.919Z,10.00
2023-01-06T04:25:34.610Z,10.00
2023-01-06T04:28:05.548Z,10.00
2023-01-06T04:30:36.263Z,10.00
2023-01-06T04:33:07.066Z,10.00
2023-01-06T04:35:37.828Z,10.00
2023-01-06T04:38:09.771Z,10.00
2023-01-06T04:40:40.479Z,10.00
2023-01-06T04:43:14.374Z,10.00
2023-01-06T04:45:45.813Z,10.00
2023-01-06T04:48:17.162Z,10.00
2023-01-06T04:50:47.991Z,10.00
2023-01-06T04:53:18.837Z,9.90
2023-01-06T04:58:30.448Z,9.90
2023-01-06T05:01:03.514Z,9.90
2023-01-06T05:03:35.328Z,9.90
2023-01-06T05:06:10.096Z,9.90
2023-01-06T05:08:42.999Z,9.90
2023-01-06T05:11:16.276Z,9.90
2023-01-06T05:16:34.055Z,9.90
2023-01-06T05:19:05.264Z,9.80
2023-01-06T05:21:35.957Z,9.80
2023-01-06T05:24:07.709Z,9.80
2023-01-06T05:26:38.523Z,9.80
2023-01-06T05:29:09.275Z,9.80
2023-01-06T05:31:40.015Z,9.80
2023-01-06T05:34:11.863Z,9.80
2023-01-06T05:36:42.489Z,9.80
2023-01-06T05:39:13.326Z,9.80
2023-01-06T05:41:44.012Z,9.80
2023-01-06T05:44:14.733Z,9.80
2023-01-06T05:46:45.335Z,9.80
2023-01-06T05:49:16.253Z,9.90
2023-01-06T05:51:46.877Z,9.90
2023-01-06T05:54:17.857Z,9.90
2023-01-06T05:56:48.517Z,9.90
2023-01-06T05:59:19.278Z,9.80
2023-01-06T06:01:50.383Z,9.80
2023-01-06T06:04:21.204Z,9.80
2023-01-06T06:06:51.781Z,9.80
2023-01-06T06:09:22.378Z,9.80
2023-01-06T06:11:54.978Z,9.80
2023-01-06T06:14:26.873Z,9.80
2023-01-06T06:16:57.538Z,9.70
2023-01-06T06:19:28.420Z,9.70
2023-01-06T06:21:59.065Z,9.70
2023-01-06T06:24:29.829Z,9.70
2023-01-06T06:27:00.437Z,9.70
2023-01-06T06:29:31.071Z,9.60
2023-01-06T06:32:01.837Z,9.60
2023-01-06T06:34:32.612Z,9.60
2023-01-06T06:37:03.236Z,9.60
2023-01-06T06:39:33.871Z,9.60
2023-01-06T06:42:04.544Z,9.60
2023-01-06T06:44:35.332Z,9.60
2023-01-06T06:47:06.016Z,9.60
2023-01-06T06:49:36.684Z,9.60
2023-01-06T06:52:07.680Z,9.60
2023-01-06T06:54:38.467Z,9.50
2023-01-06T06:59:48.457Z,9.60
2023-01-06T07:02:19.416Z,9.60
2023-01-06T07:04:50.234Z,9.60
2023-01-06T07:07:20.967Z,9.60
2023-01-06T07:09:51.565Z,9.50
2023-01-06T07:15:01.965Z,9.50
2023-01-06T07:17:32.659Z,9.50
2023-01-06T07:20:03.257Z,9.50
2023-01-06T07:22:33.877Z,9.50
2023-01-06T07:25:06.261Z,9.60
2023-01-06T07:27:37.367Z,9.50
2023-01-06T07:32:48.874Z,9.40
2023-01-06T07:35:20.433Z,9.30
2023-01-06T07:37:51.418Z,9.30
2023-01-06T07:40:22.447Z,9.30
2023-01-06T07:42:53.060Z,9.30
2023-01-06T07:45:23.851Z,9.30
2023-01-06T07:47:56.142Z,9.40
2023-01-06T07:50:26.987Z,9.40
2023-01-06T07:52:59.418Z,9.50
2023-01-06T07:55:30.890Z,9.50
2023-01-06T07:58:02.978Z,9.50
2023-01-06T08:00:34.048Z,9.60
2023-01-06T08:03:08.057Z,9.60
2023-01-06T08:05:41.873Z,9.50
2023-01-06T08:08:13.978Z,9.50
2023-01-06T08:10:45.428Z,9.40
2023-01-06T08:13:15.996Z,9.30
2023-01-06T08:15:48.423Z,9.30
2023-01-06T08:20:48.577Z,9.30
2023-01-06T08:23:19.325Z,9.40
2023-01-06T08:25:49.932Z,9.50
2023-01-06T08:28:20.550Z,9.40
2023-01-06T08:30:51.131Z,9.40
2023-01-06T08:33:23.501Z,9.30
2023-01-06T08:35:56.017Z,9.30
2023-01-06T08:38:26.651Z,9.40
2023-01-06T08:40:58.424Z,9.50
2023-01-06T08:43:30.102Z,9.40
2023-01-06T08:46:04.052Z,9.50
2023-01-06T08:48:36.102Z,9.60
2023-01-06T08:51:09.136Z,9.70
2023-01-06T08:53:40.574Z,9.80
2023-01-06T08:56:16.157Z,9.90
2023-01-06T08:58:47.192Z,9.90
2023-01-06T09:03:51.570Z,10.00
2023-01-06T09:06:23.460Z,9.90
2023-01-06T09:08:54.337Z,10.00
2023-01-06T09:11:25.463Z,10.10
2023-01-06T09:13:56.525Z,10.10
2023-01-06T09:16:27.092Z,10.20
2023-01-06T09:18:57.693Z,10.30
2023-01-06T09:21:28.335Z,10.10
2023-01-06T09:23:59.156Z,10.10
2023-01-06T09:26:30.021Z,10.10
2023-01-06T09:29:00.734Z,10.10
2023-01-06T09:31:31.627Z,10.20
2023-01-06T09:34:02.560Z,10.10
2023-01-06T09:36:34.908Z,10.10
2023-01-06T09:39:05.701Z,10.10
2023-01-06T09:41:53.116Z,10.10
2023-01-06T09:44:26.796Z,10.10
2023-01-06T09:46:58.654Z,10.20
2023-01-06T09:49:32.323Z,10.30
2023-01-06T09:52:05.954Z,10.40
2023-01-06T09:54:41.404Z,10.40
2023-01-06T09:57:15.989Z,10.40
2023-01-06T09:59:50.199Z,10.50
2023-01-06T10:02:24.517Z,10.60
2023-01-06T10:04:55.213Z,10.60
2023-01-06T10:07:29.417Z,10.70
2023-01-06T10:10:06.561Z,10.80
2023-01-06T10:12:47.233Z,10.80
2023-01-06T10:15:22.250Z,10.80
2023-01-06T10:18:08.795Z,10.90
2023-01-06T10:21:01.213Z,11.00
2023-01-06T10:23:58.950Z,10.90
2023-01-06T10:26:32.706Z,11.00
2023-01-06T10:29:06.505Z,10.80
2023-01-06T10:34:23.825Z,11.00
2023-01-06T10:36:58.863Z,11.00
2023-01-06T10:39:30.683Z,11.30
2023-01-06T10:42:27.061Z,11.40
2023-01-06T10:44:57.725Z,11.50
2023-01-06T10:47:31.794Z,11.50
2023-01-06T10:50:03.327Z,11.50
2023-01-06T10:52:35.167Z,11.40
2023-01-06T10:55:08.629Z,11.30
2023-01-06T10:57:41.939Z,11.40
2023-01-06T11:00:20.333Z,11.60
2023-01-06T11:02:52.744Z,11.60
2023-01-06T11:05:26.145Z,11.70
2023-01-06T11:07:59.776Z,11.90
2023-01-06T11:10:33.287Z,11.90
2023-01-06T11:13:05.845Z,11.90
2023-01-06T11:15:42.709Z,12.00
2023-01-06T11:18:23.885Z,12.10
2023-01-06T11:21:10.071Z,12.20
2023-01-06T11:23:42.626Z,12.40
2023-01-06T11:26:22.342Z,12.90
2023-01-06T11:28:56.511Z,13.30
2023-01-06T11:31:29.616Z,13.30
2023-01-06T11:34:03.214Z,13.00
2023-01-06T11:36:35.604Z,13.20
2023-01-06T11:39:08.971Z,13.40
2023-01-06T11:41:42.165Z,13.80
2023-01-06T11:44:17.144Z,14.00
2023-01-06T11:46:52.250Z,14.00
2023-01-06T11:49:25.966Z,14.10
2023-01-06T11:52:03.660Z,14.10
2023-01-06T11:57:23.533Z,13.80
2023-01-06T12:03:09.080Z,14.40
2023-01-06T12:05:42.804Z,14.00
2023-01-06T12:08:18.344Z,14.60
2023-01-06T12:10:52.295Z,14.20
2023-01-06T12:13:23.944Z,13.70
2023-01-06T12:15:59.393Z,13.40
2023-01-06T12:18:33.582Z,13.30
2023-01-06T12:21:06.499Z,13.20
2023-01-06T12:23:40.371Z,13.10
2023-01-06T12:26:15.636Z,13.10
2023-01-06T12:28:48.835Z,12.60
2023-01-06T12:31:22.859Z,12.80
2023-01-06T12:33:57.438Z,12.60
2023-01-06T12:36:31.976Z,12.50
2023-01-06T12:39:05.420Z,12.70
2023-01-06T12:41:39.531Z,12.60
2023-01-06T12:44:15.939Z,12.40
2023-01-06T12:46:50.257Z,12.30
2023-01-06T12:49:26.495Z,12.10
2023-01-06T12:52:00.188Z,12.00
2023-01-06T12:54:33.962Z,12.00
2023-01-06T12:57:16.223Z,12.00
2023-01-06T12:59:54.515Z,11.90
2023-01-06T13:02:35.567Z,11.90
2023-01-06T13:05:17.808Z,12.00
2023-01-06T13:07:52.868Z,11.90
2023-01-06T13:10:30.339Z,12.00
2023-01-06T13:13:08.640Z,11.90
2023-01-06T13:15:42.344Z,11.90
2023-01-06T13:18:17.572Z,11.90
2023-01-06T13:20:51.243Z,11.80
2023-01-06T13:23:49.568Z,11.90
2023-01-06T13:27:06.356Z,11.90
2023-01-06T13:29:43.574Z,11.90
2023-01-06T13:32:30.544Z,12.10
2023-01-06T13:35:34.346Z,12.00
2023-01-06T13:38:14.196Z,11.90
2023-01-06T13:40:47.631Z,11.90
2023-01-06T13:43:37.274Z,11.90
2023-01-06T13:46:11.411Z,11.90
2023-01-06T13:48:45.010Z,11.90
2023-01-06T13:51:18.491Z,12.00
2023-01-06T13:53:50.499Z,12.00
2023-01-06T13:56:32.138Z,12.00
2023-01-06T13:59:22.449Z,12.00
2023-01-06T14:01:55.144Z,12.00
2023-01-06T14:04:48.593Z,11.90
2023-01-06T14:07:33.144Z,11.90
2023-01-06T14:10:05.780Z,11.90
2023-01-06T14:12:38.215Z,11.90
2023-01-06T14:15:20.784Z,11.90
2023-01-06T14:17:51.632Z,11.90
2023-01-06T14:20:29.908Z,11.90
2023-01-06T14:23:06.776Z,12.00
2023-01-06T14:25:40.719Z,12.00
2023-01-06T14:28:26.038Z,11.90
2023-01-06T14:31:52.260Z,11.90
2023-01-06T14:34:24.248Z,11.90
2023-01-06T14:36:57.091Z,12.00
2023-01-06T14:39:30.984Z,12.00
2023-01-06T14:42:06.672Z,12.00
2023-01-06T14:44:43.473Z,12.00
2023-01-06T14:47:18.731Z,11.80
2023-01-06T14:49:53.141Z,11.80
2023-01-06T14:52:26.790Z,11.90
2023-01-06T14:54:58.331Z,11.90
2023-01-06T14:57:32.817Z,11.80
2023-01-06T15:00:19.114Z,11.80
2023-01-06T15:02:52.158Z,11.80
2023-01-06T15:05:25.482Z,11.70
2023-01-06T15:08:04.406Z,11.70
2023-01-06T15:10:38.488Z,11.70
2023-01-06T15:13:23.866Z,11.60
2023-01-06T15:15:58.632Z,11.50
2023-01-06T15:18:29.434Z,11.50
2023-01-06T15:21:07.137Z,11.50
2023-01-06T15:23:39.297Z,11.50
2023-01-06T15:26:17.035Z,11.40
2023-01-06T15:29:03.423Z,11.40
2023-01-06T15:31:36.016Z,11.40
2023-01-06T15:34:10.759Z,11.40
2023-01-06T15:36:43.725Z,11.40
2023-01-06T15:39:17.066Z,11.30
2023-01-06T15:41:47.966Z,11.20
2023-01-06T15:44:27.282Z,11.20
2023-01-06T15:47:02.230Z,11.20
2023-01-06T15:49:36.239Z,11.10
2023-01-06T15:55:00.113Z,11.10
2023-01-06T15:57:33.812Z,11.00
2023-01-06T16:00:07.920Z,11.00
2023-01-06T16:02:39.260Z,11.00
2023-01-06T16:05:39.813Z,10.90
2023-01-06T16:08:21.266Z,10.90
2023-01-06T16:10:53.962Z,10.90
2023-01-06T16:13:29.288Z,10.90
2023-01-06T16:16:03.413Z,10.80
2023-01-06T16:18:36.721Z,10.80
2023-01-06T16:21:18.510Z,10.70
2023-01-06T16:23:52.832Z,10.70
2023-01-06T16:26:26.616Z,10.60
2023-01-06T16:28:58.959Z,10.60
2023-01-06T16:31:35.072Z,10.70
2023-01-06T16:34:20.921Z,10.70
2023-01-06T16:36:53.517Z,10.70
2023-01-06T16:39:24.536Z,10.70
2023-01-06T16:42:41.056Z,10.70
2023-01-06T16:45:32.793Z,10.80
2023-01-06T16:48:04.256Z,10.60
2023-01-06T16:50:38.544Z,10.60
2023-01-06T16:53:16.484Z,10.60
2023-01-06T16:55:48.789Z,10.60
2023-01-06T16:58:21.416Z,10.60
2023-01-06T17:00:54.566Z,10.60
2023-01-06T17:03:27.171Z,10.50
2023-01-06T17:05:59.225Z,10.50
2023-01-06T17:08:32.936Z,10.50
2023-01-06T17:11:06.147Z,10.50
2023-01-06T17:13:37.010Z,10.50
2023-01-06T17:16:17.120Z,10.50
2023-01-06T17:18:56.520Z,10.50
2023-01-06T17:21:30.183Z,10.40
2023-01-06T17:24:07.742Z,10.30
2023-01-06T17:26:38.596Z,10.30
2023-01-06T17:29:15.770Z,10.20
2023-01-06T17:31:48.777Z,10.10
2023-01-06T17:34:24.648Z,10.10
2023-01-06T17:36:57.408Z,10.10
2023-01-06T17:39:31.509Z,10.10
2023-01-06T17:42:05.993Z,10.10
2023-01-06T17:44:41.069Z,10.10
2023-01-06T17:47:20.360Z,10.10
2023-01-06T17:49:55.251Z,10.10
2023-01-06T17:52:28.525Z,10.00
2023-01-06T17:55:19.976Z,10.00
2023-01-06T17:57:51.371Z,10.00
2023-01-06T18:00:25.855Z,10.00
2023-01-06T18:02:59.624Z,9.90
2023-01-06T18:06:06.209Z,9.90
2023-01-06T18:08:39.495Z,9.90
2023-01-06T18:11:33.439Z,9.80
2023-01-06T18:14:24.899Z,9.80
2023-01-06T18:16:59.247Z,9.80
2023-01-06T18:19:33.791Z,9.80
2023-01-06T18:22:12.201Z,9.80
2023-01-06T18:24:44.357Z,9.80
2023-01-06T18:27:20.399Z,9.80
2023-01-06T18:29:51.159Z,9.90
2023-01-06T18:32:33.927Z,9.80
2023-01-06T18:35:06.729Z,9.80
2023-01-06T18:37:38.626Z,9.80
2023-01-06T18:40:14.159Z,9.80
2023-01-06T18:42:46.208Z,9.80
2023-01-06T18:45:26.189Z,9.80
2023-01-06T18:47:59.773Z,9.80
2023-01-06T18:50:37.233Z,9.90
2023-01-06T18:55:59.313Z,9.80
2023-01-06T18:58:48.017Z,9.80
2023-01-06T19:01:22.185Z,9.90
2023-01-06T19:04:03.314Z,9.80
2023-01-06T19:06:42.932Z,9.90
2023-01-06T19:09:27.390Z,9.80
2023-01-06T19:12:08.771Z,9.80
2023-01-06T19:14:42.206Z,9.80
2023-01-06T19:17:21.060Z,9.70
2023-01-06T19:19:53.474Z,9.80
2023-01-06T19:22:27.218Z,9.80
2023-01-06T19:25:04.223Z,9.80
2023-01-06T19:27:44.336Z,9.80
2023-01-06T19:30:42.996Z,9.80
2023-01-06T19:33:37.160Z,9.90
2023-01-06T19:36:38.640Z,9.80
2023-01-06T19:42:20.761Z,9.80
2023-01-06T19:44:54.893Z,9.90
2023-01-06T19:47:28.500Z,9.90
2023-01-06T19:52:42.140Z,10.00
2023-01-06T19:55:22.971Z,9.90
2023-01-06T19:57:57.323Z,9.90
2023-01-06T20:00:31.445Z,9.90
2023-01-06T20:03:04.712Z,9.80
2023-01-06T20:05:35.796Z,9.90
2023-01-06T20:08:06.824Z,9.90
2023-01-06T20:10:37.517Z,9.90
2023-01-06T20:13:08.161Z,9.90
2023-01-06T20:15:38.940Z,10.00
2023-01-06T20:18:09.713Z,10.00
2023-01-06T20:20:40.377Z,9.90
2023-01-06T20:23:11.434Z,9.80
2023-01-06T20:25:42.071Z,9.80
2023-01-06T20:28:12.787Z,9.70
2023-01-06T20:30:46.371Z,9.70
2023-01-06T20:33:17.192Z,9.80
2023-01-06T20:35:47.873Z,9.80
2023-01-06T20:38:18.599Z,9.80
2023-01-06T20:40:49.175Z,9.90
2023-01-06T20:43:19.785Z,9.90
2023-01-06T20:45:51.473Z,9.90
2023-01-06T20:48:22.161Z,9.90
2023-01-06T20:50:53.387Z,9.80
2023-01-06T20:53:24.538Z,9.80
2023-01-06T20:55:55.199Z,9.70
2023-01-06T20:58:25.788Z,9.80
2023-01-06T21:00:56.500Z,9.80
2023-01-06T21:03:27.272Z,9.80
2023-01-06T21:05:57.931Z,9.70
2023-01-06T21:08:28.592Z,9.70
2023-01-06T21:10:59.184Z,9.70
2023-01-06T21:13:29.804Z,9.70
2023-01-06T21:16:00.484Z,9.70
2023-01-06T21:18:31.368Z,9.70
2023-01-06T21:21:02.120Z,9.70
2023-01-06T21:23:32.845Z,9.70
2023-01-06T21:26:03.515Z,9.70
2023-01-06T21:28:34.284Z,9.70
2023-01-06T21:31:05.243Z,9.70
2023-01-06T21:33:35.953Z,9.70
2023-01-06T21:36:07.378Z,9.70
2023-01-06T21:38:38.291Z,9.60
2023-01-06T21:41:28.045Z,9.60
2023-01-06T21:43:58.620Z,9.50
2023-01-06T21:46:29.308Z,9.50
2023-01-06T21:48:59.921Z,9.50
2023-01-06T21:51:30.583Z,9.60
2023-01-06T21:54:01.545Z,9.60
2023-01-06T21:56:32.433Z,9.50
2023-01-06T21:59:03.071Z,9.40
2023-01-06T22:01:33.822Z,9.30
2023-01-06T22:04:06.067Z,9.30
2023-01-06T22:06:38.048Z,9.40
2023-01-06T22:09:10.624Z,9.40
2023-01-06T22:11:42.233Z,9.40
2023-01-06T22:14:14.920Z,9.30
2023-01-06T22:17:04.852Z,9.30
2023-01-06T22:19:35.928Z,9.40
2023-01-06T22:22:07.652Z,9.40
2023-01-06T22:24:38.867Z,9.40
2023-01-06T22:27:10.241Z,9.40
2023-01-06T22:29:40.878Z,9.40
2023-01-06T22:32:11.495Z,9.50
2023-01-06T22:34:42.146Z,9.50
2023-01-06T22:37:12.795Z,9.50
2023-01-06T22:39:44.133Z,9.50
2023-01-06T22:42:15.177Z,9.50
2023-01-06T22:44:45.833Z,9.50
2023-01-06T22:47:16.447Z,9.60
2023-01-06T22:49:47.025Z,9.60
2023-01-06T22:52:18.352Z,9.70
2023-01-06T22:54:49.055Z,9.70
2023-01-06T22:57:19.813Z,9.70
2023-01-06T22:59:50.385Z,9.70
2023-01-06T23:02:22.145Z,9.80
2023-01-06T23:04:53.080Z,9.80
2023-01-06T23:07:23.699Z,9.80
2023-01-06T23:09:54.265Z,9.70
2023-01-06T23:12:24.921Z,9.60
2023-01-06T23:14:55.557Z,9.50
2023-01-06T23:17:26.275Z,9.40
2023-01-06T23:19:56.902Z,9.40
2023-01-06T23:22:27.536Z,9.40
2023-01-06T23:24:58.252Z,9.40
2023-01-06T23:27:31.141Z,9.40
2023-01-06T23:30:01.178Z,9.40
2023-01-06T23:32:31.839Z,9.20
2023-01-06T23:35:02.451Z,9.20
2023-01-06T23:37:34.094Z,9.20
2023-01-06T23:40:04.887Z,9.30
2023-01-06T23:42:40.763Z,9.30
2023-01-06T23:45:11.216Z,9.30
2023-01-06T23:47:41.939Z,9.20
2023-01-06T23:50:12.990Z,9.20
2023-01-06T23:52:43.596Z,9.10
2023-01-06T23:55:14.168Z,9.10
2023-01-06T23:57:44.823Z,9.10
